Time;durP1;ratioP1;P1;durP2;ratioP2;P2;SDS_P1;SDS_P2;PMS_P1;PMS_P2;Temp;Humidity;BMP_temperature;BMP_pressure;BME280_temperature;BME280_humidity;BME280_pressure;Samples;Min_cycle;Max_cycle;Signal;HPM_P1;HPM_P2
2022/06/12 00:01:54;;;;;;;3.40;2.10;;;18.30;86.20;;;;;;4186149;28;20057;-75
2022/06/12 00:03:56;;;;;;;2.65;2.05;;;18.30;86.20;;;;;;4193194;28;20057;-75
2022/06/12 00:06:00;;;;;;;3.35;2.20;;;18.30;86.00;;;;;;4182095;28;20124;-76
2022/06/12 00:08:03;;;;;;;2.40;2.08;;;18.30;86.30;;;;;;4182289;28;20131;-76
2022/06/12 00:10:05;;;;;;;3.15;2.35;;;18.30;86.60;;;;;;4182109;28;20784;-76
2022/06/12 00:12:08;;;;;;;2.22;2.03;;;18.20;86.00;;;;;;4180834;28;20069;-76
2022/06/12 00:14:11;;;;;;;2.70;2.42;;;18.20;86.80;;;;;;4182028;28;20088;-76
2022/06/12 00:16:15;;;;;;;3.58;2.50;;;18.20;86.90;;;;;;4182605;28;20060;-76
2022/06/12 00:18:18;;;;;;;4.25;3.03;;;18.10;87.10;;;;;;4173759;28;20057;-76
2022/06/12 00:20:23;;;;;;;11.57;10.38;;;18.10;87.40;;;;;;4173861;28;20132;-76
2022/06/12 00:22:25;;;;;;;25.23;21.88;;;18.10;87.40;;;;;;4179830;28;20053;-75
2022/06/12 00:24:27;;;;;;;21.88;16.08;;;18.10;87.30;;;;;;4183573;28;20069;-76
2022/06/12 00:26:33;;;;;;;34.67;20.15;;;18.10;87.20;;;;;;4182430;28;20062;-76
2022/06/12 00:28:35;;;;;;;55.65;34.95;;;18.10;87.20;;;;;;4177015;28;20058;-76
2022/06/12 00:30:37;;;;;;;28.92;19.60;;;18.10;87.20;;;;;;4177307;28;20057;-76
2022/06/12 00:32:39;;;;;;;23.05;15.70;;;18.10;87.30;;;;;;4174462;28;20877;-76
2022/06/12 00:34:48;;;;;;;14.88;10.75;;;18.10;87.30;;;;;;4171180;28;20881;-75
2022/06/12 00:36:50;;;;;;;9.48;7.90;;;18.10;87.50;;;;;;4171954;28;20190;-75
2022/06/12 00:38:51;;;;;;;6.13;5.53;;;18.10;87.60;;;;;;4172923;28;20046;-75
2022/06/12 00:40:53;;;;;;;7.63;6.93;;;18.10;87.80;;;;;;4172910;28;20119;-75
2022/06/12 00:43:00;;;;;;;5.88;4.65;;;17.90;88.10;;;;;;4175989;28;20105;-75
2022/06/12 00:45:27;;;;;;;6.50;5.55;;;17.80;89.00;;;;;;4167328;28;20820;-75
2022/06/12 00:47:29;;;;;;;7.45;4.10;;;17.80;89.20;;;;;;4170547;28;20072;-75
2022/06/12 00:49:36;;;;;;;3.55;3.25;;;17.70;89.70;;;;;;4171057;28;20058;-76
2022/06/12 00:51:39;;;;;;;3.78;3.00;;;17.70;89.60;;;;;;4173789;28;20062;-76
2022/06/12 00:53:47;;;;;;;2.65;2.45;;;17.70;89.40;;;;;;4171018;28;20046;-76
2022/06/12 00:56:05;;;;;;;2.95;2.10;;;17.80;89.30;;;;;;4172349;28;20113;-76
2022/06/12 00:58:18;;;;;;;3.45;2.28;;;17.70;89.30;;;;;;4173471;28;20054;-75
2022/06/12 01:00:20;;;;;;;3.45;2.80;;;17.70;89.60;;;;;;4172918;28;20057;-75
2022/06/12 01:02:26;;;;;;;3.22;2.90;;;17.70;89.60;;;;;;4178871;28;20057;-75
2022/06/12 01:06:52;;;;;;;3.42;3.00;;;17.60;90.00;;;;;;4178100;28;20060;-76
2022/06/12 01:08:53;;;;;;;5.40;3.53;;;17.60;89.80;;;;;;4181529;28;20100;-76
2022/06/12 01:11:00;;;;;;;5.03;4.38;;;17.60;89.90;;;;;;4177914;28;20071;-76
2022/06/12 01:13:06;;;;;;;7.47;3.25;;;17.50;90.30;;;;;;4179557;28;20057;-76
2022/06/12 01:15:14;;;;;;;5.25;2.83;;;17.50;90.20;;;;;;4180801;28;20153;-76
2022/06/12 01:17:17;;;;;;;3.42;3.20;;;17.60;90.20;;;;;;4179098;28;20058;-76
2022/06/12 01:19:36;;;;;;;4.43;2.63;;;17.50;90.30;;;;;;4175071;28;20760;-76
2022/06/12 01:22:01;;;;;;;4.45;3.28;;;17.60;90.10;;;;;;4173220;28;20076;-76
2022/06/12 01:24:23;;;;;;;2.65;2.45;;;17.40;90.30;;;;;;4170096;28;20065;-76
2022/06/12 01:26:40;;;;;;;3.40;3.10;;;17.50;90.20;;;;;;4175896;28;20065;-76
2022/06/12 01:28:45;;;;;;;3.63;2.92;;;17.30;90.70;;;;;;4177279;28;20053;-76
2022/06/12 01:31:07;;;;;;;4.57;3.17;;;17.30;90.60;;;;;;4175088;28;20152;-75
2022/06/12 01:33:32;;;;;;;2.85;2.53;;;17.30;90.70;;;;;;4179418;28;20061;-76
2022/06/12 01:35:50;;;;;;;4.60;2.55;;;17.30;91.00;;;;;;4178164;28;20124;-75
2022/06/12 01:38:04;;;;;;;3.30;3.00;;;17.30;90.90;;;;;;4174749;28;20143;-75
2022/06/12 01:40:30;;;;;;;7.60;3.10;;;17.20;91.00;;;;;;4174790;28;20080;-76
2022/06/12 01:42:59;;;;;;;5.07;3.38;;;17.30;90.90;;;;;;4180573;28;20081;-76
2022/06/12 01:45:31;;;;;;;3.75;3.10;;;17.30;90.90;;;;;;4179671;28;20155;-75
2022/06/12 01:47:50;;;;;;;4.60;3.83;;;17.30;90.90;;;;;;4170056;28;20061;-76
2022/06/12 01:50:17;;;;;;;5.50;4.00;;;17.30;90.90;;;;;;4183629;28;20678;-75
2022/06/12 01:52:28;;;;;;;5.03;2.85;;;17.20;91.10;;;;;;4183747;28;20048;-76
2022/06/12 01:54:51;;;;;;;2.95;2.65;;;17.20;91.00;;;;;;4168076;28;20064;-75
2022/06/12 01:57:18;;;;;;;3.20;2.80;;;17.30;91.00;;;;;;4166290;28;20985;-75
2022/06/12 01:59:28;;;;;;;6.32;3.28;;;17.30;90.90;;;;;;4168600;28;20941;-75
2022/06/12 02:01:49;;;;;;;2.90;2.70;;;17.20;91.10;;;;;;4167657;28;20160;-75
2022/06/12 02:04:12;;;;;;;2.60;2.40;;;17.20;91.00;;;;;;4169883;28;20916;-76
2022/06/12 02:06:29;;;;;;;2.88;2.60;;;17.10;91.20;;;;;;4171605;28;20160;-76
2022/06/12 02:08:41;;;;;;;3.58;2.50;;;17.10;91.30;;;;;;4170216;28;20062;-76
2022/06/12 02:10:50;;;;;;;4.13;2.70;;;17.00;91.30;;;;;;4171942;28;20912;-76
2022/06/12 02:13:32;;;;;;;4.18;2.80;;;17.00;91.40;;;;;;4170841;28;20160;-76
2022/06/12 02:15:43;;;;;;;2.58;1.90;;;17.00;91.60;;;;;;4175306;28;20061;-76
2022/06/12 02:17:47;;;;;;;;;;;17.00;91.60;;;;;;4185571;28;20057;-76
2022/06/12 02:19:51;;;;;;;4.50;2.83;;;17.00;91.50;;;;;;4185980;28;19999;-76
2022/06/12 02:22:09;;;;;;;2.33;2.13;;;17.00;91.50;;;;;;4176907;28;20057;-76
2022/06/12 02:24:21;;;;;;;2.97;2.33;;;16.90;91.60;;;;;;4174319;28;20053;-76
2022/06/12 02:26:36;;;;;;;3.97;2.63;;;16.90;91.70;;;;;;4172781;28;20072;-76
2022/06/12 02:29:01;;;;;;;2.85;2.28;;;16.90;91.70;;;;;;4174618;28;20065;-75
2022/06/12 02:31:09;;;;;;;3.28;2.58;;;16.90;91.60;;;;;;4174564;28;21004;-76
2022/06/12 02:33:38;;;;;;;2.75;2.55;;;17.00;91.50;;;;;;4176514;28;20092;-75
2022/06/12 02:35:51;;;;;;;2.63;2.42;;;17.00;91.40;;;;;;4181668;28;20065;-75
2022/06/12 02:37:58;;;;;;;3.53;2.42;;;16.90;91.40;;;;;;4179123;28;20065;-76
2022/06/12 02:40:10;;;;;;;7.65;2.40;;;16.90;91.50;;;;;;4177748;28;20062;-75
2022/06/12 02:42:18;;;;;;;2.53;1.90;;;16.80;91.60;;;;;;4179036;28;20062;-77
2022/06/12 02:44:37;;;;;;;2.47;2.05;;;16.90;91.60;;;;;;4183852;28;20062;-76
2022/06/12 02:46:48;;;;;;;2.60;2.15;;;16.90;91.60;;;;;;4193660;28;20163;-76
2022/06/12 02:48:50;;;;;;;5.20;2.30;;;16.90;91.60;;;;;;4176318;28;20053;-75
2022/06/12 02:51:03;;;;;;;2.17;1.77;;;16.90;91.60;;;;;;4176366;28;20196;-75
2022/06/12 02:53:29;;;;;;;14.98;9.15;;;16.90;91.60;;;;;;4176934;28;20053;-76
2022/06/12 02:55:56;;;;;;;20.67;12.10;;;16.80;91.80;;;;;;4181943;28;20093;-76
2022/06/12 02:58:10;;;;;;;30.52;15.77;;;16.70;92.00;;;;;;4176381;28;20050;-75
2022/06/12 03:00:13;;;;;;;32.03;15.50;;;16.70;92.10;;;;;;4182132;28;20116;-75
2022/06/12 03:02:29;;;;;;;26.05;13.32;;;16.70;92.00;;;;;;4175265;28;20153;-75
2022/06/12 03:04:47;;;;;;;18.77;11.43;;;16.70;91.90;;;;;;4175357;28;20057;-75
2022/06/12 03:06:50;;;;;;;26.55;16.23;;;16.70;91.80;;;;;;4175554;28;20104;-76
2022/06/12 03:08:58;;;;;;;27.88;15.85;;;16.70;91.80;;;;;;4181225;28;20725;-76
2022/06/12 03:11:36;;;;;;;26.92;17.02;;;16.70;91.90;;;;;;4171902;28;20135;-76
2022/06/12 03:13:38;;;;;;;23.13;14.80;;;16.70;92.00;;;;;;4181603;28;20061;-76
2022/06/12 03:15:43;;;;;;;29.90;16.48;;;16.60;92.10;;;;;;4177763;28;20113;-75
2022/06/12 03:17:46;;;;;;;35.63;21.08;;;16.60;92.10;;;;;;4172754;28;20065;-76
2022/06/12 03:19:54;;;;;;;27.63;15.05;;;16.50;92.40;;;;;;4182904;28;20160;-75
2022/06/12 03:22:14;;;;;;;20.13;12.45;;;16.40;92.60;;;;;;4173712;28;20065;-75
2022/06/12 03:24:28;;;;;;;9.27;6.67;;;16.50;92.80;;;;;;4174211;28;21287;-74
2022/06/12 03:26:56;;;;;;;10.75;5.43;;;16.50;92.30;;;;;;4170350;28;20886;-74
2022/06/12 03:29:32;;;;;;;5.32;4.05;;;16.60;92.20;;;;;;4170477;28;20065;-75
2022/06/12 03:32:01;;;;;;;6.80;5.35;;;16.50;92.20;;;;;;4168991;28;20707;-75
2022/06/12 03:34:15;;;;;;;8.65;6.80;;;16.50;92.40;;;;;;4186628;28;20188;-75
2022/06/12 03:36:26;;;;;;;33.17;20.42;;;16.50;92.50;;;;;;4173254;28;20061;-75
2022/06/12 03:38:46;;;;;;;28.38;16.48;;;16.40;92.60;;;;;;4182543;28;20093;-75
2022/06/12 03:41:20;;;;;;;33.78;19.00;;;16.30;92.80;;;;;;4195188;28;20061;-75
2022/06/12 03:43:48;;;;;;;66.65;36.05;;;16.40;92.70;;;;;;4181089;28;20054;-75
2022/06/12 03:46:11;;;;;;;30.40;18.52;;;16.50;92.60;;;;;;4175014;28;20064;-75
2022/06/12 03:48:45;;;;;;;32.28;15.75;;;16.50;92.60;;;;;;4173787;28;20183;-75
2022/06/12 03:51:02;;;;;;;11.13;7.25;;;16.50;92.50;;;;;;4163830;28;20888;-76
2022/06/12 03:53:29;;;;;;;61.13;30.90;;;16.40;92.60;;;;;;4175229;28;20061;-76
2022/06/12 03:58:01;;;;;;;26.38;15.45;;;16.30;93.20;;;;;;4176678;28;20067;-76
2022/06/12 04:00:10;;;;;;;24.45;13.27;;;16.30;93.20;;;;;;4175257;28;20088;-76
2022/06/12 04:02:18;;;;;;;22.42;13.30;;;16.40;93.20;;;;;;4181267;28;20058;-76
2022/06/12 04:04:24;;;;;;;21.02;11.80;;;16.40;93.30;;;;;;4171378;28;20108;-76
2022/06/12 04:06:29;;;;;;;15.95;10.02;;;16.30;93.40;;;;;;4174221;28;20109;-76
2022/06/12 04:08:38;;;;;;;20.60;12.00;;;16.30;94.00;;;;;;4174232;28;20053;-76
2022/06/12 04:10:40;;;;;;;36.13;21.60;;;16.30;94.20;;;;;;4159755;28;20855;-76
2022/06/12 04:15:52;;;;;;;33.63;18.55;;;16.40;93.90;;;;;;4176295;28;20936;-76
2022/06/12 04:18:14;;;;;;;44.67;25.73;;;16.40;93.80;;;;;;4116605;28;20109;-76
2022/06/12 04:20:49;;;;;;;36.78;21.90;;;16.50;93.80;;;;;;4180717;28;20057;-76
2022/06/12 04:23:33;;;;;;;46.88;26.05;;;16.40;93.80;;;;;;4169603;28;20058;-76
2022/06/12 04:26:21;;;;;;;111.82;60.45;;;16.40;94.00;;;;;;4173833;28;20051;-76
2022/06/12 04:28:35;;;;;;;76.55;40.85;;;16.50;94.10;;;;;;4170908;28;20797;-76
2022/06/12 04:31:03;;;;;;;46.30;27.95;;;16.50;94.30;;;;;;4170628;28;20069;-76
2022/06/12 04:33:48;;;;;;;26.55;16.52;;;16.50;94.30;;;;;;4169889;28;20089;-76
2022/06/12 04:36:08;;;;;;;14.73;9.40;;;16.60;94.70;;;;;;4112417;28;20067;-76
2022/06/12 04:38:34;;;;;;;11.32;7.20;;;16.60;94.80;;;;;;4164548;28;20054;-76
2022/06/12 04:41:02;;;;;;;9.65;7.80;;;16.70;95.40;;;;;;4162727;28;20217;-76
2022/06/12 04:43:07;;;;;;;8.48;5.93;;;16.80;95.00;;;;;;4164910;28;20096;-77
2022/06/12 04:45:09;;;;;;;8.38;5.70;;;16.80;95.00;;;;;;4163272;28;20613;-76
2022/06/12 04:47:17;;;;;;;8.50;5.70;;;16.80;95.00;;;;;;4165442;28;20054;-76
2022/06/12 04:49:23;;;;;;;7.68;5.57;;;16.80;95.40;;;;;;4163248;28;20864;-76
2022/06/12 04:51:28;;;;;;;5.85;4.13;;;16.80;95.70;;;;;;4166115;28;20088;-76
2022/06/12 04:53:29;;;;;;;4.82;4.43;;;17.00;95.70;;;;;;4164653;28;20101;-76
2022/06/12 04:55:33;;;;;;;5.30;4.80;;;17.00;95.70;;;;;;4165362;28;20058;-75
2022/06/12 04:57:35;;;;;;;9.95;5.30;;;17.00;95.80;;;;;;4162882;28;20064;-75
2022/06/12 04:59:37;;;;;;;4.10;3.70;;;17.00;95.70;;;;;;4162843;28;20925;-75
2022/06/12 05:01:41;;;;;;;7.32;3.78;;;17.10;95.60;;;;;;4161907;28;20125;-75
2022/06/12 05:03:43;;;;;;;4.05;3.17;;;17.10;95.50;;;;;;4162638;28;20061;-75
2022/06/12 05:05:45;;;;;;;8.35;3.45;;;17.10;95.30;;;;;;4162805;28;20058;-75
2022/06/12 05:07:46;;;;;;;3.38;3.08;;;17.20;95.50;;;;;;4173005;28;20062;-75
2022/06/12 05:09:48;;;;;;;2.88;2.67;;;17.20;95.30;;;;;;4163732;28;20058;-75
2022/06/12 05:11:51;;;;;;;6.88;3.83;;;17.30;95.40;;;;;;4180200;28;20057;-75
2022/06/12 05:13:53;;;;;;;3.03;2.83;;;17.30;95.30;;;;;;4180771;28;20793;-75
2022/06/12 05:15:55;;;;;;;4.80;3.25;;;17.40;95.70;;;;;;4179516;28;20054;-75
2022/06/12 05:17:57;;;;;;;5.15;2.63;;;17.40;95.60;;;;;;4179220;28;20061;-75
2022/06/12 05:19:59;;;;;;;4.35;2.90;;;17.40;95.40;;;;;;4178294;28;20104;-75
2022/06/12 05:22:02;;;;;;;3.13;2.83;;;17.50;95.30;;;;;;4178102;28;20092;-75
2022/06/12 05:24:04;;;;;;;3.55;2.70;;;17.50;95.10;;;;;;4178165;28;20064;-75
2022/06/12 05:26:06;;;;;;;2.83;2.63;;;17.60;94.90;;;;;;4178092;28;20053;-75
2022/06/12 05:28:11;;;;;;;3.65;2.80;;;17.60;94.80;;;;;;4178411;28;20148;-75
2022/06/12 05:30:18;;;;;;;3.22;2.17;;;17.60;94.70;;;;;;4178964;28;20843;-75
2022/06/12 05:32:22;;;;;;;3.22;2.60;;;17.70;94.60;;;;;;4179578;28;20144;-75
2022/06/12 05:34:25;;;;;;;4.93;3.30;;;17.70;94.40;;;;;;4177941;28;20057;-75
2022/06/12 05:36:27;;;;;;;2.70;2.50;;;17.70;94.30;;;;;;4179569;28;20077;-75
2022/06/12 05:38:29;;;;;;;2.90;2.60;;;17.80;94.20;;;;;;4179114;28;20238;-75
2022/06/12 05:40:33;;;;;;;2.83;2.53;;;17.80;94.30;;;;;;4184194;28;20057;-74
2022/06/12 05:42:37;;;;;;;5.13;2.92;;;17.80;94.40;;;;;;4156846;28;20148;-75
2022/06/12 05:44:39;;;;;;;2.65;2.20;;;17.90;94.20;;;;;;4180212;28;20667;-76
2022/06/12 05:46:42;;;;;;;2.88;2.60;;;17.90;94.10;;;;;;4172112;28;20780;-76
2022/06/12 05:48:44;;;;;;;2.65;2.45;;;18.00;94.10;;;;;;4181780;28;20155;-75
2022/06/12 05:50:53;;;;;;;2.47;2.28;;;18.00;94.00;;;;;;4173560;28;20804;-76
2022/06/12 05:52:56;;;;;;;2.22;2.03;;;18.00;93.90;;;;;;4168890;28;20159;-76
2022/06/12 05:54:57;;;;;;;2.72;2.30;;;18.00;93.80;;;;;;4167865;28;20097;-76
2022/06/12 05:56:59;;;;;;;4.65;2.88;;;18.10;93.70;;;;;;4168355;28;20177;-75
2022/06/12 05:59:01;;;;;;;4.82;3.00;;;18.10;93.90;;;;;;4169242;28;20895;-75
2022/06/12 06:01:08;;;;;;;5.18;3.78;;;18.10;93.80;;;;;;4167036;28;20168;-75
2022/06/12 06:03:10;;;;;;;3.35;3.05;;;18.20;93.80;;;;;;4172625;28;20054;-76
2022/06/12 06:05:13;;;;;;;4.93;3.03;;;18.20;93.90;;;;;;4169994;28;20137;-76
2022/06/12 06:07:15;;;;;;;3.03;2.67;;;18.20;93.80;;;;;;4171102;28;20069;-76
2022/06/12 06:09:18;;;;;;;3.22;3.00;;;18.20;93.90;;;;;;4174724;28;20057;-76
2022/06/12 06:11:19;;;;;;;3.03;2.05;;;18.30;93.90;;;;;;4168810;28;20148;-77
2022/06/12 06:13:21;;;;;;;4.03;3.25;;;18.30;93.90;;;;;;4175114;28;21098;-76
2022/06/12 06:15:23;;;;;;;5.13;3.47;;;18.30;94.00;;;;;;4170171;28;20158;-76
2022/06/12 06:17:25;;;;;;;5.28;2.83;;;18.40;94.10;;;;;;4174721;28;20057;-76
2022/06/12 06:19:26;;;;;;;3.28;2.90;;;18.40;94.10;;;;;;4174381;28;20058;-75
2022/06/12 06:21:29;;;;;;;2.53;2.30;;;18.50;93.90;;;;;;4170303;28;20064;-75
2022/06/12 06:23:30;;;;;;;2.80;2.60;;;18.50;94.00;;;;;;4173641;28;20057;-76
2022/06/12 06:25:33;;;;;;;3.95;2.70;;;18.50;93.90;;;;;;4174396;28;20807;-77
2022/06/12 06:27:34;;;;;;;3.05;2.53;;;18.50;94.00;;;;;;4173174;28;20063;-76
2022/06/12 06:29:36;;;;;;;2.75;2.55;;;18.50;94.10;;;;;;4173145;28;21420;-76
2022/06/12 06:31:38;;;;;;;3.00;2.72;;;18.60;94.10;;;;;;4171600;28;20100;-75
2022/06/12 06:33:40;;;;;;;4.07;2.55;;;18.60;94.20;;;;;;4173651;28;20124;-75
2022/06/12 06:35:42;;;;;;;2.53;2.10;;;18.60;94.00;;;;;;4173426;28;20104;-76
2022/06/12 06:37:45;;;;;;;2.72;2.17;;;18.70;94.00;;;;;;4177868;28;20061;-77
2022/06/12 06:39:47;;;;;;;2.28;2.08;;;18.70;94.10;;;;;;4171740;28;20092;-76
2022/06/12 06:41:48;;;;;;;4.93;2.90;;;18.80;94.10;;;;;;4172343;28;20063;-76
2022/06/12 06:46:14;;;;;;;2.33;2.13;;;18.80;94.00;;;;;;4176362;28;20880;-75
2022/06/12 06:48:16;;;;;;;2.88;2.47;;;18.80;93.90;;;;;;4176526;28;20062;-76
2022/06/12 06:50:20;;;;;;;3.78;2.00;;;18.90;93.60;;;;;;4183165;28;20092;-77
2022/06/12 06:52:22;;;;;;;2.05;1.90;;;19.00;92.90;;;;;;4183270;28;20057;-76
2022/06/12 06:54:24;;;;;;;3.38;1.75;;;19.00;92.40;;;;;;4179942;28;20663;-76
2022/06/12 06:56:27;;;;;;;4.03;1.90;;;19.10;90.60;;;;;;4178591;28;20164;-79
2022/06/12 06:58:33;;;;;;;3.05;1.63;;;19.20;90.20;;;;;;4179504;28;20062;-76
2022/06/12 07:00:36;;;;;;;3.33;1.70;;;19.20;90.20;;;;;;4179546;28;20056;-76
2022/06/12 07:02:39;;;;;;;2.45;1.83;;;19.20;90.30;;;;;;4176155;28;20861;-78
2022/06/12 07:04:41;;;;;;;3.88;1.58;;;19.30;90.20;;;;;;4180246;28;20057;-76
2022/06/12 07:06:43;;;;;;;1.67;1.38;;;19.20;90.40;;;;;;4181309;28;20096;-77
2022/06/12 07:08:44;;;;;;;2.17;1.52;;;19.30;90.10;;;;;;4173682;28;20808;-78
2022/06/12 07:10:48;;;;;;;1.58;1.42;;;19.30;89.20;;;;;;4173846;28;20068;-78
2022/06/12 07:12:51;;;;;;;1.73;1.23;;;19.40;89.20;;;;;;4182960;28;20112;-78
2022/06/12 07:14:53;;;;;;;2.08;1.58;;;19.40;88.70;;;;;;4175030;28;20152;-77
2022/06/12 07:16:55;;;;;;;1.70;1.60;;;19.40;88.30;;;;;;4178466;28;20062;-79
2022/06/12 07:18:57;;;;;;;1.48;1.38;;;19.40;88.40;;;;;;4178044;28;20180;-78
2022/06/12 07:21:01;;;;;;;1.45;1.30;;;19.50;87.90;;;;;;4180175;28;20054;-80
2022/06/12 07:23:06;;;;;;;3.90;1.77;;;19.50;88.10;;;;;;4181662;28;20058;-79
2022/06/12 07:25:09;;;;;;;1.83;1.35;;;19.50;88.30;;;;;;4179440;28;20983;-79
2022/06/12 07:27:10;;;;;;;2.65;1.80;;;19.50;88.40;;;;;;4179557;28;20062;-77
2022/06/12 07:29:16;;;;;;;2.67;1.65;;;19.60;87.90;;;;;;4184118;28;20062;-77
2022/06/12 07:31:19;;;;;;;3.80;2.03;;;19.60;87.60;;;;;;4192116;28;20050;-76
2022/06/12 07:33:21;;;;;;;4.40;1.30;;;19.70;86.10;;;;;;4182027;28;20064;-80
2022/06/12 07:35:23;;;;;;;2.45;1.30;;;19.70;86.90;;;;;;4181111;28;20080;-80
2022/06/12 07:37:25;;;;;;;1.27;1.17;;;19.80;86.40;;;;;;4179228;28;20165;-80
2022/06/12 07:39:30;;;;;;;3.10;1.45;;;19.80;85.50;;;;;;4180857;28;20076;-79
2022/06/12 07:41:31;;;;;;;1.45;1.27;;;19.90;82.40;;;;;;4180055;28;20050;-79
2022/06/12 07:43:34;;;;;;;2.25;1.20;;;19.90;83.50;;;;;;4180415;28;20061;-79
2022/06/12 07:45:38;;;;;;;3.92;1.10;;;19.90;84.20;;;;;;4179690;28;20054;-79
2022/06/12 07:47:40;;;;;;;2.25;1.40;;;19.90;84.30;;;;;;4179246;28;20080;-77
2022/06/12 07:49:42;;;;;;;4.28;1.00;;;19.80;83.80;;;;;;4178339;28;20061;-77
2022/06/12 07:51:44;;;;;;;1.85;1.30;;;19.90;82.30;;;;;;4176416;28;20065;-80
2022/06/12 07:53:47;;;;;;;7.13;1.05;;;19.90;82.30;;;;;;4179968;28;20156;-80
2022/06/12 07:55:50;;;;;;;2.38;1.40;;;20.00;80.70;;;;;;4176643;28;20796;-80
2022/06/12 07:57:53;;;;;;;3.33;1.27;;;20.00;80.70;;;;;;4179188;28;20054;-79
2022/06/12 07:59:55;;;;;;;1.00;1.00;;;20.00;81.30;;;;;;4175155;28;20077;-79
2022/06/12 08:01:57;;;;;;;2.28;1.35;;;20.00;81.50;;;;;;4175783;28;20678;-80
2022/06/12 08:03:59;;;;;;;1.27;0.90;;;20.00;81.10;;;;;;4183459;28;20059;-80
2022/06/12 08:06:00;;;;;;;2.00;1.80;;;20.10;81.30;;;;;;4179792;28;20088;-77
2022/06/12 08:08:02;;;;;;;1.48;1.00;;;20.10;81.40;;;;;;4175935;28;20877;-77
2022/06/12 08:10:05;;;;;;;4.35;1.30;;;20.10;80.70;;;;;;4178022;28;20093;-78
2022/06/12 08:12:07;;;;;;;1.40;1.10;;;20.20;79.20;;;;;;4174561;28;20077;-77
2022/06/12 08:14:09;;;;;;;2.63;1.35;;;20.30;78.10;;;;;;4178094;28;20944;-79
2022/06/12 08:16:13;;;;;;;1.67;1.10;;;20.20;78.60;;;;;;4175868;28;20058;-77
2022/06/12 08:18:16;;;;;;;2.47;1.20;;;20.30;79.60;;;;;;4170516;28;20057;-78
2022/06/12 08:20:30;;;;;;;2.65;1.50;;;20.30;80.10;;;;;;4173545;28;20061;-79
2022/06/12 08:22:32;;;;;;;2.30;1.35;;;20.30;79.80;;;;;;4173412;28;20119;-79
2022/06/12 08:24:36;;;;;;;2.05;1.40;;;20.30;79.90;;;;;;4173102;28;20093;-78
2022/06/12 08:26:37;;;;;;;3.92;2.22;;;20.40;80.00;;;;;;4170378;28;20060;-79
2022/06/12 08:28:44;;;;;;;4.38;1.60;;;20.50;78.80;;;;;;4172241;28;20054;-79
2022/06/12 08:30:45;;;;;;;1.33;1.10;;;20.50;79.70;;;;;;4182580;28;20141;-80
2022/06/12 08:32:50;;;;;;;1.98;1.67;;;20.50;80.30;;;;;;4172293;28;20061;-79
2022/06/12 08:35:00;;;;;;;2.83;1.88;;;20.60;80.70;;;;;;4178175;28;20160;-79
2022/06/12 08:37:07;;;;;;;1.95;1.45;;;20.60;81.00;;;;;;4191114;28;20053;-78
2022/06/12 08:39:09;;;;;;;1.90;1.60;;;20.60;81.80;;;;;;4180543;28;20173;-78
2022/06/12 08:41:19;;;;;;;2.20;1.88;;;20.70;81.30;;;;;;4177490;28;20416;-80
2022/06/12 08:43:31;;;;;;;2.42;1.88;;;20.70;81.20;;;;;;4179256;28;20096;-80
2022/06/12 08:45:43;;;;;;;3.63;1.45;;;20.70;80.80;;;;;;4178349;28;20095;-80
2022/06/12 08:48:11;;;;;;;1.95;1.73;;;20.80;79.80;;;;;;4177027;28;20049;-80
2022/06/12 08:50:42;;;;;;;2.70;1.70;;;21.00;78.60;;;;;;4178083;28;20058;-79
2022/06/12 08:52:51;;;;;;;3.03;1.98;;;21.00;79.50;;;;;;4174036;28;20057;-78
2022/06/12 08:54:59;;;;;;;4.50;1.70;;;21.20;78.00;;;;;;4178218;28;20058;-78
2022/06/12 08:57:07;;;;;;;4.45;1.55;;;21.20;77.20;;;;;;4177957;28;20052;-78
2022/06/12 08:59:14;;;;;;;3.53;1.60;;;21.20;78.30;;;;;;4179274;28;20125;-79
2022/06/12 09:01:16;;;;;;;2.22;1.63;;;21.10;78.50;;;;;;4181571;28;20132;-79
2022/06/12 09:03:21;;;;;;;1.42;1.27;;;21.10;78.70;;;;;;4180896;28;20076;-76
2022/06/12 09:05:34;;;;;;;2.53;1.75;;;21.20;78.30;;;;;;4179923;28;20135;-79
2022/06/12 09:08:10;;;;;;;4.25;1.40;;;21.20;78.30;;;;;;4186474;28;20068;-77
2022/06/12 09:10:27;;;;;;;2.03;1.55;;;21.20;78.00;;;;;;4187923;28;20085;-79
2022/06/12 09:12:36;;;;;;;2.67;1.75;;;21.40;76.20;;;;;;4182761;28;20057;-79
2022/06/12 09:15:00;;;;;;;1.80;1.35;;;21.50;75.60;;;;;;4188900;28;20068;-78
2022/06/12 09:17:34;;;;;;;1.95;1.75;;;21.50;76.20;;;;;;4187064;28;20057;-79
2022/06/12 09:19:52;;;;;;;2.35;1.38;;;21.40;76.90;;;;;;4189465;28;20073;-80
2022/06/12 09:22:12;;;;;;;1.98;1.42;;;21.40;77.80;;;;;;4179161;28;20808;-76
2022/06/12 09:24:26;;;;;;;1.48;1.38;;;21.40;77.70;;;;;;4190947;28;20093;-77
2022/06/12 09:27:02;;;;;;;2.33;1.52;;;21.40;77.20;;;;;;4187375;28;20065;-77
2022/06/12 09:29:23;;;;;;;2.47;1.67;;;21.40;77.00;;;;;;4173221;28;20057;-75
2022/06/12 09:31:34;;;;;;;2.33;1.60;;;21.50;76.60;;;;;;4170197;28;20857;-80
2022/06/12 09:33:42;;;;;;;3.65;1.50;;;21.50;75.80;;;;;;4175373;28;20053;-79
2022/06/12 09:35:52;;;;;;;1.50;1.40;;;21.60;76.40;;;;;;4181785;28;20092;-76
2022/06/12 09:38:19;;;;;;;4.22;1.48;;;21.70;75.00;;;;;;4186631;28;20084;-81
2022/06/12 09:40:20;;;;;;;1.75;1.35;;;21.70;74.80;;;;;;4175458;28;20058;-78
2022/06/12 09:42:27;;;;;;;1.40;1.25;;;21.70;74.20;;;;;;4169817;28;20093;-77
2022/06/12 09:44:45;;;;;;;2.35;1.38;;;21.70;73.70;;;;;;4174821;28;20069;-78
2022/06/12 09:47:05;;;;;;;3.25;1.83;;;21.70;74.40;;;;;;4172679;28;20061;-78
2022/06/12 09:49:58;;;;;;;3.47;1.50;;;21.70;75.00;;;;;;4172745;28;20064;-78
2022/06/12 09:52:23;;;;;;;2.90;1.77;;;21.70;74.30;;;;;;4176695;28;20057;-78
2022/06/12 09:54:45;;;;;;;3.72;2.05;;;21.90;73.20;;;;;;4177203;28;20947;-77
2022/06/12 09:57:06;;;;;;;1.55;1.45;;;21.80;73.60;;;;;;4173003;28;20101;-78
2022/06/12 09:59:17;;;;;;;1.67;1.58;;;21.80;74.30;;;;;;4172581;28;20881;-78
2022/06/12 10:01:32;;;;;;;4.03;1.90;;;21.80;74.70;;;;;;4171884;28;20061;-78
2022/06/12 10:03:41;;;;;;;1.63;1.23;;;21.80;75.50;;;;;;4175818;28;20180;-79
2022/06/12 10:05:51;;;;;;;6.45;1.77;;;21.80;75.60;;;;;;4174433;28;20887;-78
2022/06/12 10:08:11;;;;;;;2.65;1.80;;;21.90;75.30;;;;;;4173844;28;20850;-79
2022/06/12 10:10:23;;;;;;;4.30;2.22;;;22.10;73.70;;;;;;4180370;28;20049;-77
2022/06/12 10:12:29;;;;;;;2.90;1.38;;;22.10;73.70;;;;;;4176949;28;20049;-80
2022/06/12 10:14:51;;;;;;;2.88;1.60;;;22.00;75.30;;;;;;4176906;28;20058;-80
2022/06/12 10:16:57;;;;;;;2.75;1.88;;;22.00;74.80;;;;;;4174773;28;20058;-79
2022/06/12 10:19:14;;;;;;;2.95;1.50;;;22.00;74.80;;;;;;4176977;28;20176;-80
2022/06/12 10:21:21;;;;;;;1.85;1.58;;;22.10;74.60;;;;;;4177122;28;20177;-79
2022/06/12 10:23:23;;;;;;;1.73;1.25;;;22.10;74.30;;;;;;4179478;28;20204;-79
2022/06/12 10:25:37;;;;;;;2.97;2.17;;;22.10;74.70;;;;;;4177473;28;20054;-79
2022/06/12 10:27:52;;;;;;;5.10;2.00;;;22.50;73.00;;;;;;4177033;28;20184;-79
2022/06/12 10:29:57;;;;;;;3.28;2.00;;;22.40;73.80;;;;;;4176895;28;20949;-77
2022/06/12 10:32:04;;;;;;;3.50;1.67;;;22.40;72.40;;;;;;4179770;28;20184;-79
2022/06/12 10:34:20;;;;;;;2.40;1.70;;;22.40;72.70;;;;;;4177116;28;20061;-79
2022/06/12 10:36:31;;;;;;;3.80;1.90;;;22.40;72.70;;;;;;4177241;28;20097;-77
2022/06/12 10:38:35;;;;;;;3.58;2.05;;;22.40;72.50;;;;;;4179138;28;20882;-80
2022/06/12 10:40:36;;;;;;;2.95;1.48;;;22.50;72.20;;;;;;4177291;28;20093;-76
2022/06/12 10:42:42;;;;;;;1.73;1.63;;;22.60;71.50;;;;;;4191333;28;20053;-77
2022/06/12 10:44:54;;;;;;;1.98;1.48;;;23.00;67.80;;;;;;4177716;28;20057;-80
2022/06/12 10:46:55;;;;;;;2.45;1.63;;;22.90;67.40;;;;;;4178030;28;20091;-80
2022/06/12 10:49:21;;;;;;;1.70;1.55;;;22.70;68.90;;;;;;4171417;28;20061;-80
2022/06/12 10:51:27;;;;;;;1.48;1.38;;;22.60;70.10;;;;;;4171162;28;20104;-81
2022/06/12 10:53:31;;;;;;;3.45;1.67;;;22.50;71.30;;;;;;4176716;28;20064;-79
2022/06/12 10:55:36;;;;;;;3.85;1.92;;;22.50;72.00;;;;;;4176688;28;20065;-80
2022/06/12 10:57:50;;;;;;;2.15;1.65;;;22.60;70.20;;;;;;4175623;28;20061;-81
2022/06/12 11:00:10;;;;;;;2.63;2.17;;;22.80;69.10;;;;;;4172149;28;20050;-78
2022/06/12 11:02:46;;;;;;;2.97;1.38;;;22.90;67.60;;;;;;4173718;28;20788;-79
2022/06/12 11:05:13;;;;;;;2.63;1.67;;;22.90;67.80;;;;;;4175917;28;20064;-80
2022/06/12 11:07:30;;;;;;;2.20;1.50;;;22.90;67.70;;;;;;4180242;28;20925;-78
2022/06/12 11:09:40;;;;;;;4.97;2.22;;;22.90;67.70;;;;;;4176105;28;20884;-78
2022/06/12 11:12:13;;;;;;;2.05;1.52;;;23.00;67.30;;;;;;4172374;28;20067;-79
2022/06/12 11:14:45;;;;;;;1.92;1.50;;;23.00;66.90;;;;;;4175885;28;20068;-78
2022/06/12 11:17:02;;;;;;;1.05;0.95;;;23.00;67.30;;;;;;4173625;28;20801;-78
2022/06/12 11:19:13;;;;;;;3.10;1.80;;;22.80;68.20;;;;;;4179994;28;20857;-80
2022/06/12 11:21:24;;;;;;;2.25;1.40;;;22.80;69.20;;;;;;4177129;28;20231;-78
2022/06/12 11:23:42;;;;;;;2.85;1.55;;;22.70;69.70;;;;;;4180234;28;20100;-79
2022/06/12 11:26:24;;;;;;;1.48;1.38;;;22.80;69.20;;;;;;4178928;28;20093;-79